Time;durP1;ratioP1;P1;durP2;ratioP2;P2;SDS_P1;SDS_P2;PMS_P1;PMS_P2;Temp;Humidity;BMP_temperature;BMP_pressure;BME280_temperature;BME280_humidity;BME280_pressure;Samples;Min_cycle;Max_cycle;Signal;HPM_P1;HPM_P2
2021/08/14 00:00:07;;;;;;;20.63;7.83;;;;;;;17.01;71.01;102244.81;4932706;29;20286;-72
2021/08/14 00:02:34;;;;;;;16.63;8.07;;;;;;;16.87;71.37;102240.69;4933661;29;20244;-72
2021/08/14 00:05:00;;;;;;;16.53;7.53;;;;;;;16.79;71.92;102232.09;4932591;29;20239;-72
2021/08/14 00:07:26;;;;;;;17.83;7.97;;;;;;;16.72;72.17;102226.78;4931890;29;20221;-72
2021/08/14 00:09:53;;;;;;;15.00;7.57;;;;;;;16.85;71.84;102225.78;4932785;29;20251;-72
2021/08/14 00:12:19;;;;;;;20.37;7.47;;;;;;;16.88;71.72;102226.13;4933487;29;20589;-72
2021/08/14 00:14:47;;;;;;;21.63;8.20;;;;;;;16.94;71.58;102227.91;4932711;29;20280;-72
2021/08/14 00:17:13;;;;;;;20.97;8.00;;;;;;;17.08;71.21;102225.00;4932780;29;20226;-72
2021/08/14 00:19:40;;;;;;;15.13;7.10;;;;;;;16.92;71.79;102223.81;4931931;29;20239;-72
2021/08/14 00:22:06;;;;;;;14.47;7.63;;;;;;;16.57;73.36;102227.19;4930197;29;20242;-72
2021/08/14 00:24:33;;;;;;;17.93;7.47;;;;;;;16.76;72.60;102225.25;4930115;29;20535;-72
2021/08/14 00:26:59;;;;;;;16.73;7.07;;;;;;;16.77;72.73;102222.38;4930826;29;20222;-72
2021/08/14 00:29:25;;;;;;;16.53;7.03;;;;;;;16.80;72.62;102207.56;4930633;29;20447;-72
2021/08/14 00:31:53;;;;;;;17.30;7.37;;;;;;;16.66;73.13;102211.50;4930738;29;20258;-72
2021/08/14 00:34:19;;;;;;;18.83;7.03;;;;;;;16.69;73.25;102213.75;4930056;29;20291;-72
2021/08/14 00:36:46;;;;;;;18.00;7.47;;;;;;;16.77;72.88;102205.34;4930097;29;20233;-72
2021/08/14 00:39:12;;;;;;;20.90;8.13;;;;;;;16.83;72.63;102211.69;4929755;29;20265;-72
2021/08/14 00:41:38;;;;;;;20.03;7.60;;;;;;;16.87;72.62;102208.28;4931015;29;20230;-72
2021/08/14 00:44:05;;;;;;;18.23;7.90;;;;;;;17.00;72.20;102218.06;4931427;29;20929;-72
2021/08/14 00:46:32;;;;;;;17.37;7.67;;;;;;;16.82;72.80;102220.84;4930446;28;20211;-72
2021/08/14 00:49:02;;;;;;;14.37;7.07;;;;;;;16.85;72.90;102212.28;4931966;29;20501;-72
2021/08/14 00:51:28;;;;;;;15.43;7.43;;;;;;;16.92;72.74;102204.91;4928903;29;20283;-72
2021/08/14 00:53:55;;;;;;;18.90;7.40;;;;;;;17.04;72.19;102205.75;4927733;29;20646;-72
2021/08/14 00:56:22;;;;;;;20.60;7.47;;;;;;;16.97;72.29;102203.16;4929676;29;20299;-72
2021/08/14 00:58:48;;;;;;;20.63;7.13;;;;;;;16.58;73.84;102219.91;4930482;28;20282;-72
2021/08/14 01:01:16;;;;;;;16.63;7.83;;;;;;;16.84;72.91;102206.06;4931291;28;20214;-72
2021/08/14 01:03:43;;;;;;;21.13;8.13;;;;;;;16.77;73.40;102203.47;4929738;29;20672;-72
2021/08/14 01:06:12;;;;;;;17.70;8.03;;;;;;;16.83;73.31;102184.69;4933058;29;20294;-72
2021/08/14 01:08:38;;;;;;;14.37;7.07;;;;;;;16.71;73.61;102188.19;4930011;29;20223;-72
2021/08/14 01:11:05;;;;;;;20.23;7.70;;;;;;;16.72;73.73;102189.00;4928520;29;21227;-72
2021/08/14 01:13:33;;;;;;;22.77;8.47;;;;;;;16.79;73.56;102181.66;4929213;29;20239;-72
2021/08/14 01:16:00;;;;;;;20.03;8.30;;;;;;;16.65;74.23;102189.09;4930644;29;20230;-72
2021/08/14 01:18:26;;;;;;;23.80;7.80;;;;;;;16.61;74.58;102190.59;4928871;29;20219;-73
2021/08/14 01:20:53;;;;;;;15.00;8.57;;;;;;;16.94;73.09;102175.78;4929409;29;20273;-72
2021/08/14 01:23:21;;;;;;;15.80;8.27;;;;;;;16.85;73.15;102169.09;4930669;29;20242;-73
2021/08/14 01:26:00;;;;;;;16.70;8.37;;;;;;;16.75;73.92;102178.56;4930288;29;20225;-73
2021/08/14 01:28:28;;;;;;;19.13;8.43;;;;;;;16.71;74.19;102177.38;4930844;29;20218;-73
2021/08/14 01:30:54;;;;;;;16.60;7.47;;;;;;;16.63;74.69;102177.69;4930123;29;20667;-72
2021/08/14 01:33:21;;;;;;;16.93;8.10;;;;;;;16.69;74.41;102179.50;4930298;29;20595;-73
2021/08/14 01:35:47;;;;;;;20.50;9.50;;;;;;;16.58;75.22;102182.94;4929918;29;20279;-73
2021/08/14 01:38:14;;;;;;;22.37;8.30;;;;;;;16.69;74.75;102182.19;4932364;29;20218;-72
2021/08/14 01:40:40;;;;;;;22.33;8.40;;;;;;;16.79;74.39;102186.22;4929429;29;20262;-72
2021/08/14 01:43:06;;;;;;;18.53;8.17;;;;;;;16.78;74.51;102177.31;4929685;29;20840;-72
2021/08/14 01:45:34;;;;;;;20.60;7.80;;;;;;;16.70;75.07;102183.03;4930339;29;20220;-73
2021/08/14 01:48:00;;;;;;;16.47;7.90;;;;;;;16.67;75.29;102169.97;4931569;29;20268;-72
2021/08/14 01:50:27;;;;;;;21.90;8.70;;;;;;;16.56;75.92;102173.44;4928461;29;20293;-73
2021/08/14 01:52:54;;;;;;;19.97;7.67;;;;;;;16.79;74.98;102164.63;4929872;28;20235;-73
2021/08/14 01:55:20;;;;;;;22.23;7.87;;;;;;;16.89;74.88;102165.69;4930833;29;20214;-73
2021/08/14 01:57:47;;;;;;;16.83;7.87;;;;;;;17.05;74.05;102170.41;4929963;29;20274;-73
2021/08/14 02:00:14;;;;;;;14.23;7.83;;;;;;;16.98;74.35;102169.69;4930564;29;20273;-73
2021/08/14 02:02:42;;;;;;;20.17;8.00;;;;;;;16.92;74.57;102165.22;4929277;29;20247;-73
2021/08/14 02:05:09;;;;;;;20.83;8.10;;;;;;;16.77;75.07;102175.66;4929138;29;20783;-73
2021/08/14 02:07:35;;;;;;;21.20;8.17;;;;;;;16.92;74.70;102169.81;4928691;29;20215;-73
2021/08/14 02:10:02;;;;;;;15.73;7.40;;;;;;;16.76;75.25;102171.28;4928748;29;20640;-73
2021/08/14 02:12:28;;;;;;;16.23;7.60;;;;;;;16.80;75.20;102164.38;4928946;28;20223;-73
2021/08/14 02:14:54;;;;;;;18.27;7.63;;;;;;;16.77;75.28;102156.75;4929220;29;20220;-73
2021/08/14 02:17:21;;;;;;;19.43;7.13;;;;;;;16.67;75.72;102161.88;4930612;29;20223;-73
2021/08/14 02:19:48;;;;;;;15.27;7.83;;;;;;;16.70;75.66;102148.75;4928367;29;20235;-73
2021/08/14 02:22:15;;;;;;;15.87;7.67;;;;;;;16.91;75.11;102163.59;4926307;29;20325;-73
2021/08/14 02:24:41;;;;;;;17.60;7.10;;;;;;;16.62;76.31;102159.03;4931853;29;20589;-73
2021/08/14 02:27:07;;;;;;;19.63;7.93;;;;;;;16.45;76.65;102153.47;4929308;29;20234;-73
2021/08/14 02:29:34;;;;;;;18.03;7.27;;;;;;;16.34;77.29;102160.47;4926253;28;20294;-73
2021/08/14 02:32:01;;;;;;;21.00;8.50;;;;;;;16.57;76.64;102158.91;4929978;29;20707;-73
2021/08/14 02:34:27;;;;;;;16.63;7.40;;;;;;;16.64;75.94;102151.50;4930654;29;20235;-73
2021/08/14 02:36:55;;;;;;;20.60;7.23;;;;;;;16.88;75.11;102144.31;4927756;29;20829;-73
2021/08/14 02:39:21;;;;;;;18.43;8.10;;;;;;;16.47;76.66;102148.66;4927775;28;20848;-73
2021/08/14 02:41:47;;;;;;;17.60;8.67;;;;;;;16.47;76.99;102141.38;4928791;29;20218;-73
2021/08/14 02:44:14;;;;;;;25.47;7.73;;;;;;;16.41;77.22;102146.91;4929151;29;20316;-73
2021/08/14 02:46:40;;;;;;;17.50;8.60;;;;;;;16.30;77.55;102145.81;4933772;28;20275;-73
2021/08/14 02:49:06;;;;;;;21.10;9.03;;;;;;;16.45;77.20;102143.50;4933257;29;20231;-73
2021/08/14 02:51:33;;;;;;;16.00;7.83;;;;;;;16.58;76.76;102144.34;4931694;29;20625;-73
2021/08/14 02:54:00;;;;;;;20.37;8.60;;;;;;;16.45;77.35;102143.50;4933117;29;20213;-73
2021/08/14 02:56:27;;;;;;;19.23;8.30;;;;;;;16.57;76.89;102143.53;4936539;29;20222;-73
2021/08/14 02:58:53;;;;;;;23.43;9.00;;;;;;;16.70;76.56;102142.53;4931046;29;20320;-73
2021/08/14 03:01:19;;;;;;;16.63;8.87;;;;;;;16.66;76.73;102138.63;4932389;29;20663;-73
2021/08/14 03:03:46;;;;;;;22.27;8.90;;;;;;;16.82;76.14;102148.78;4933828;29;20855;-73
2021/08/14 03:06:25;;;;;;;19.27;7.57;;;;;;;16.71;76.65;102145.00;4932466;28;20762;-73
2021/08/14 03:08:52;;;;;;;25.57;9.37;;;;;;;16.88;75.97;102138.91;4933728;29;20720;-73
2021/08/14 03:11:19;;;;;;;19.53;8.93;;;;;;;16.80;76.16;102145.50;4932089;29;20219;-73
2021/08/14 03:13:46;;;;;;;19.23;9.00;;;;;;;16.58;77.33;102137.06;4933128;29;20628;-73
2021/08/14 03:16:12;;;;;;;23.70;8.97;;;;;;;16.56;77.81;102146.47;4933794;29;20218;-73
2021/08/14 03:18:38;;;;;;;22.43;9.70;;;;;;;16.90;76.30;102137.66;4932854;29;20239;-73
2021/08/14 03:21:05;;;;;;;21.13;9.13;;;;;;;16.88;76.33;102141.63;4932684;29;20223;-73
2021/08/14 03:23:31;;;;;;;22.20;9.10;;;;;;;16.53;77.66;102136.16;4932563;29;20245;-73
2021/08/14 03:25:58;;;;;;;22.73;9.73;;;;;;;16.61;77.54;102135.78;4931809;28;20222;-73
2021/08/14 03:28:25;;;;;;;26.53;9.57;;;;;;;16.64;77.55;102135.31;4930681;28;20218;-73
2021/08/14 03:30:52;;;;;;;23.63;9.50;;;;;;;16.67;77.45;102135.72;4932779;29;20271;-73
2021/08/14 03:33:18;;;;;;;20.87;9.93;;;;;;;16.56;78.02;102139.19;4931290;29;21181;-73
2021/08/14 03:35:44;;;;;;;22.17;9.00;;;;;;;16.62;77.87;102135.56;4933596;29;20279;-73
2021/08/14 03:38:11;;;;;;;20.10;8.83;;;;;;;16.63;77.68;102130.97;4931899;29;20214;-73
2021/08/14 03:40:37;;;;;;;27.83;9.50;;;;;;;16.43;78.46;102137.50;4928960;29;20683;-73
2021/08/14 03:43:04;;;;;;;23.07;9.40;;;;;;;16.31;79.21;102130.44;4931234;29;20226;-73
2021/08/14 03:45:31;;;;;;;27.97;10.40;;;;;;;16.35;79.06;102134.31;4931478;29;20278;-73
2021/08/14 03:47:58;;;;;;;19.70;9.80;;;;;;;16.47;78.51;102136.00;4932797;29;20285;-72
2021/08/14 03:50:24;;;;;;;19.63;9.63;;;;;;;16.31;79.13;102133.13;4932484;29;20379;-73
2021/08/14 03:52:50;;;;;;;21.43;9.40;;;;;;;16.37;78.81;102127.63;4933304;29;20312;-72
2021/08/14 03:55:17;;;;;;;17.43;9.43;;;;;;;16.40;78.86;102127.19;4933116;29;20214;-73
2021/08/14 03:57:43;;;;;;;23.40;9.77;;;;;;;16.23;79.34;102128.88;4930967;29;20252;-73
2021/08/14 04:00:10;;;;;;;22.53;9.90;;;;;;;16.56;78.34;102123.00;4933722;29;20219;-73
2021/08/14 04:02:38;;;;;;;23.17;10.60;;;;;;;16.55;78.17;102118.66;4929574;29;20301;-73
2021/08/14 04:05:05;;;;;;;19.97;9.80;;;;;;;16.40;78.58;102124.50;4931207;29;20301;-73
2021/08/14 04:07:32;;;;;;;22.70;10.13;;;;;;;16.31;79.34;102141.22;4932036;29;20220;-73
2021/08/14 04:09:58;;;;;;;20.83;10.27;;;;;;;16.49;78.80;102131.19;4928627;28;20222;-73
2021/08/14 04:12:24;;;;;;;22.63;10.23;;;;;;;16.44;78.77;102128.38;4928894;29;20216;-73
2021/08/14 04:14:51;;;;;;;27.07;10.27;;;;;;;16.42;78.76;102133.19;4931469;29;20214;-73
2021/08/14 04:17:17;;;;;;;21.27;10.63;;;;;;;16.28;79.58;102128.22;4933069;28;20322;-72
2021/08/14 04:19:45;;;;;;;17.80;10.27;;;;;;;16.13;79.97;102123.19;4930042;28;20239;-72
2021/08/14 04:22:11;;;;;;;23.57;11.03;;;;;;;16.14;80.11;102125.69;4931251;29;20275;-72
2021/08/14 04:24:37;;;;;;;21.47;9.73;;;;;;;16.02;80.72;102119.44;4932161;29;21009;-73
2021/08/14 04:27:04;;;;;;;22.63;11.30;;;;;;;15.97;80.92;102121.97;4932977;29;20593;-73
2021/08/14 04:29:31;;;;;;;27.17;9.43;;;;;;;15.89;81.23;102119.59;4929511;29;20214;-73
2021/08/14 04:31:57;;;;;;;24.90;12.48;;;;;;;16.05;80.81;102120.84;4933591;29;20470;-79
2021/08/14 04:34:24;;;;;;;23.67;11.67;;;;;;;16.12;80.28;102124.25;4938181;29;20246;-79
2021/08/14 04:36:51;;;;;;;21.97;11.00;;;;;;;16.16;80.29;102125.47;4937886;29;20230;-79
2021/08/14 04:39:18;;;;;;;25.97;11.63;;;;;;;16.08;80.60;102125.78;4936345;29;20630;-79
2021/08/14 04:41:44;;;;;;;20.03;10.93;;;;;;;16.00;80.83;102110.72;4936056;29;20222;-79
2021/08/14 04:44:11;;;;;;;26.07;10.67;;;;;;;16.23;80.20;102115.38;4935949;28;20242;-79
2021/08/14 04:46:37;;;;;;;22.03;11.23;;;;;;;16.18;80.25;102104.47;4935159;29;20225;-79
2021/08/14 04:49:03;;;;;;;27.17;11.67;;;;;;;16.08;80.51;102106.91;4936737;29;20238;-78
2021/08/14 04:51:30;;;;;;;25.67;11.10;;;;;;;16.13;80.35;102104.31;4934727;29;20639;-79
2021/08/14 04:53:58;;;;;;;25.23;12.40;;;;;;;16.08;80.40;102121.19;4936281;28;20229;-79
2021/08/14 04:56:25;;;;;;;25.80;12.37;;;;;;;15.99;81.27;102119.84;4937211;29;20206;-78
2021/08/14 04:58:51;;;;;;;27.47;11.90;;;;;;;16.04;81.05;102121.91;4933204;29;20258;-78
2021/08/14 05:01:17;;;;;;;23.83;12.47;;;;;;;16.09;80.83;102120.16;4938583;29;20800;-79
2021/08/14 05:03:44;;;;;;;28.90;12.53;;;;;;;16.18;80.35;102121.47;4934147;29;20621;-79
2021/08/14 05:06:10;;;;;;;25.30;12.07;;;;;;;16.37;79.54;102116.84;4935263;29;20752;-79
2021/08/14 05:08:37;;;;;;;28.80;12.77;;;;;;;16.32;79.84;102118.59;4933816;29;20223;-78
2021/08/14 05:11:05;;;;;;;28.27;13.00;;;;;;;16.32;79.53;102116.72;4934243;29;20678;-78
2021/08/14 05:13:32;;;;;;;23.77;11.60;;;;;;;16.28;80.05;102117.41;4933851;29;20215;-77
2021/08/14 05:15:58;;;;;;;22.37;11.60;;;;;;;16.33;79.88;102118.34;4933194;29;20226;-78
2021/08/14 05:18:24;;;;;;;24.07;12.00;;;;;;;16.40;79.73;102120.97;4932794;29;20592;-78
2021/08/14 05:20:51;;;;;;;27.70;12.13;;;;;;;16.48;79.32;102124.16;4933340;29;20227;-77
2021/08/14 05:23:17;;;;;;;22.27;11.67;;;;;;;16.43;79.68;102121.31;4933459;28;20609;-78
2021/08/14 05:25:44;;;;;;;22.10;11.23;;;;;;;16.87;78.05;102116.50;4934764;29;20242;-78
2021/08/14 05:28:11;;;;;;;24.40;11.43;;;;;;;16.84;77.99;102116.16;4931949;29;20214;-78
2021/08/14 05:30:38;;;;;;;21.93;11.90;;;;;;;16.92;77.77;102113.13;4931712;29;20222;-77
2021/08/14 05:33:04;;;;;;;23.60;11.87;;;;;;;16.90;77.95;102112.53;4931175;29;20249;-78
2021/08/14 05:35:31;;;;;;;25.53;11.53;;;;;;;16.94;77.86;102122.63;4931336;29;20227;-78
2021/08/14 05:37:57;;;;;;;20.63;10.70;;;;;;;16.94;77.91;102114.53;4930945;29;20610;-78
2021/08/14 05:40:24;;;;;;;20.43;10.07;;;;;;;16.94;77.86;102111.00;4934230;29;20211;-78
2021/08/14 05:42:50;;;;;;;24.03;11.10;;;;;;;17.18;77.44;102112.66;4933915;29;20230;-78
2021/08/14 05:45:18;;;;;;;22.27;11.07;;;;;;;17.46;76.38;102111.09;4931487;29;20689;-77
2021/08/14 05:47:44;;;;;;;23.30;10.60;;;;;;;17.73;75.41;102117.63;4932193;29;21086;-78
2021/08/14 05:50:11;;;;;;;20.80;9.97;;;;;;;17.61;75.53;102120.31;4932425;28;20253;-77
2021/08/14 05:52:37;;;;;;;20.30;10.23;;;;;;;17.23;77.03;102120.03;4929978;29;20314;-77
2021/08/14 05:55:04;;;;;;;21.83;10.93;;;;;;;17.20;77.42;102109.72;4931540;29;20216;-78
2021/08/14 05:57:31;;;;;;;27.10;11.23;;;;;;;17.00;78.18;102120.84;4931449;29;20213;-78
2021/08/14 05:59:57;;;;;;;24.33;11.20;;;;;;;16.93;78.49;102114.75;4933086;29;20215;-78
2021/08/14 06:02:25;;;;;;;24.07;11.10;;;;;;;17.13;78.00;102117.91;4932097;29;20222;-78
2021/08/14 06:04:51;;;;;;;25.47;11.40;;;;;;;17.00;78.21;102121.66;4931622;29;20368;-77
2021/08/14 06:07:18;;;;;;;26.00;10.33;;;;;;;17.12;77.75;102126.25;4933538;29;20275;-78
2021/08/14 06:09:44;;;;;;;24.17;10.23;;;;;;;17.33;77.21;102118.38;4932828;29;20222;-78
2021/08/14 06:12:11;;;;;;;23.00;10.70;;;;;;;17.57;75.82;102126.47;4929562;29;20216;-78
2021/08/14 06:14:38;;;;;;;22.13;12.20;;;;;;;17.20;77.42;102134.00;4927963;29;20244;-77
2021/08/14 06:17:05;;;;;;;23.47;11.00;;;;;;;17.71;76.40;102144.09;4926694;29;20332;-78
2021/08/14 06:19:33;;;;;;;18.10;10.73;;;;;;;18.04;74.65;102137.16;4931892;29;20670;-78
2021/08/14 06:21:59;;;;;;;21.70;10.77;;;;;;;18.19;74.00;102134.75;4934693;28;20221;-78
2021/08/14 06:24:25;;;;;;;23.90;11.10;;;;;;;18.41;73.10;102126.75;4934688;28;20240;-78
2021/08/14 06:26:52;;;;;;;20.03;11.30;;;;;;;18.50;73.23;102130.72;4935551;29;20215;-78
2021/08/14 06:29:19;;;;;;;21.47;10.97;;;;;;;18.74;71.75;102123.31;4936465;29;20216;-80
2021/08/14 06:31:45;;;;;;;22.40;10.30;;;;;;;18.61;72.52;102126.31;4935312;29;20225;-80
2021/08/14 06:34:11;;;;;;;20.57;10.33;;;;;;;18.85;72.26;102121.59;4932631;29;20233;-80
2021/08/14 06:36:39;;;;;;;18.70;10.33;;;;;;;19.13;70.13;102123.34;4933608;29;20218;-80
2021/08/14 06:39:06;;;;;;;20.37;10.97;;;;;;;18.81;71.63;102123.97;4937834;29;20240;-80
2021/08/14 06:41:32;;;;;;;23.53;11.10;;;;;;;18.55;72.53;102120.00;4934894;28;20209;-80
2021/08/14 06:43:58;;;;;;;22.90;11.90;;;;;;;18.58;72.25;102118.69;4937483;29;20211;-80
2021/08/14 06:46:25;;;;;;;24.97;10.93;;;;;;;18.63;71.77;102129.56;4934155;29;20217;-80
2021/08/14 06:48:52;;;;;;;20.87;11.07;;;;;;;18.85;71.25;102127.00;4941048;29;20253;-80
2021/08/14 06:51:18;;;;;;;25.20;10.97;;;;;;;18.84;71.37;102117.25;4938124;29;20275;-80
2021/08/14 06:53:48;;;;;;;18.77;10.20;;;;;;;19.20;70.10;102118.59;4941349;29;20238;-80
2021/08/14 06:56:14;;;;;;;25.20;11.33;;;;;;;19.34;69.88;102128.81;4935744;29;20216;-80
2021/08/14 06:58:40;;;;;;;21.27;10.27;;;;;;;19.04;70.68;102129.19;4938943;29;20758;-80
2021/08/14 07:01:07;;;;;;;21.67;10.83;;;;;;;18.81;71.77;102124.78;4937962;29;20224;-79
2021/08/14 07:03:33;;;;;;;20.37;9.90;;;;;;;18.64;72.79;102133.94;4937965;28;20250;-78
2021/08/14 07:06:00;;;;;;;17.87;10.70;;;;;;;19.03;71.77;102137.56;4934417;29;20316;-78
2021/08/14 07:08:27;;;;;;;23.00;11.80;;;;;;;19.25;70.59;102132.22;4933994;29;20222;-78
2021/08/14 07:10:55;;;;;;;24.10;10.93;;;;;;;19.55;69.06;102127.22;4933934;28;20244;-78
2021/08/14 07:13:21;;;;;;;19.37;10.70;;;;;;;19.42;69.99;102139.22;4934559;29;20299;-79
2021/08/14 07:15:47;;;;;;;24.90;10.87;;;;;;;19.17;71.01;102138.03;4935681;29;20211;-81
2021/08/14 07:18:14;;;;;;;27.07;11.47;;;;;;;19.75;69.23;102134.00;4934290;29;20215;-81
2021/08/14 07:20:40;;;;;;;22.00;10.63;;;;;;;19.59;70.28;102133.81;4934092;29;20211;-78
2021/08/14 07:23:07;;;;;;;17.33;10.80;;;;;;;20.02;69.39;102134.84;4932628;29;20279;-80
2021/08/14 07:25:33;;;;;;;20.17;9.83;;;;;;;19.89;69.47;102138.78;4936051;29;20725;-80
2021/08/14 07:28:01;;;;;;;19.60;10.30;;;;;;;19.75;69.22;102123.13;4937862;29;20218;-81
2021/08/14 07:30:27;;;;;;;18.87;10.27;;;;;;;19.78;69.76;102133.47;4937255;29;20225;-80
2021/08/14 07:32:54;;;;;;;23.73;11.30;;;;;;;19.93;69.52;102137.19;4938218;29;20213;-81
2021/08/14 07:35:20;;;;;;;25.40;10.73;;;;;;;20.42;68.06;102128.22;4938406;28;20234;-80
2021/08/14 07:37:48;;;;;;;20.30;10.83;;;;;;;20.63;67.44;102140.91;4936590;29;20221;-79
2021/08/14 07:40:18;;;;;;;18.30;10.30;;;;;;;20.00;68.95;102131.56;4935927;29;20214;-80
2021/08/14 07:42:44;;;;;;;20.23;10.47;;;;;;;20.40;67.85;102139.31;4937580;29;20203;-80
2021/08/14 07:45:15;;;;;;;20.43;11.37;;;;;;;20.25;67.80;102129.13;4937051;29;20684;-80
2021/08/14 07:47:45;;;;;;;20.60;11.37;;;;;;;20.47;67.92;102131.81;4934523;29;20233;-81
2021/08/14 07:50:12;;;;;;;20.40;10.77;;;;;;;20.98;66.57;102134.13;4932857;29;20255;-80
2021/08/14 07:52:38;;;;;;;26.13;10.93;;;;;;;20.90;65.85;102131.88;4935584;29;20685;-81
2021/08/14 07:55:06;;;;;;;28.90;11.80;;;;;;;20.61;66.71;102121.34;4938401;29;20225;-80
2021/08/14 07:57:32;;;;;;;27.40;11.10;;;;;;;20.18;68.50;102122.25;4939563;29;20311;-80
2021/08/14 08:00:00;;;;;;;21.20;10.87;;;;;;;20.56;67.18;102132.97;4937044;29;20214;-82
2021/08/14 08:02:28;;;;;;;23.50;10.87;;;;;;;20.73;66.93;102138.28;4937857;29;20717;-81
2021/08/14 08:04:54;;;;;;;25.63;11.50;;;;;;;20.64;66.74;102139.84;4937900;29;20257;-80
2021/08/14 08:07:21;;;;;;;21.23;11.17;;;;;;;21.27;65.29;102143.59;4935357;29;20260;-81
2021/08/14 08:09:47;;;;;;;23.00;11.87;;;;;;;20.11;68.93;102133.31;4934394;29;20226;-79
2021/08/14 08:12:13;;;;;;;22.57;10.93;;;;;;;20.78;65.85;102132.88;4933711;28;20222;-81
2021/08/14 08:14:40;;;;;;;19.37;10.07;;;;;;;20.74;66.46;102131.78;4938609;29;20222;-80
2021/08/14 08:17:09;;;;;;;21.20;10.60;;;;;;;21.56;63.60;102124.97;4935534;29;20270;-83
2021/08/14 08:19:37;;;;;;;21.73;10.60;;;;;;;21.13;65.44;102126.06;4938959;29;20242;-82
2021/08/14 08:22:03;;;;;;;28.47;11.57;;;;;;;20.93;65.69;102139.50;4938662;29;20214;-82
2021/08/14 08:24:30;;;;;;;28.07;11.70;;;;;;;20.38;67.49;102135.22;4937152;29;20235;-82
2021/08/14 08:26:56;;;;;;;24.37;11.30;;;;;;;20.32;67.78;102138.94;4935191;29;20275;-83
2021/08/14 08:29:23;;;;;;;27.00;12.50;;;;;;;20.58;67.44;102140.84;4935358;29;20368;-82
2021/08/14 08:31:50;;;;;;;23.63;11.77;;;;;;;20.68;67.36;102134.69;4939407;29;20233;-83
2021/08/14 08:34:19;;;;;;;20.00;10.90;;;;;;;21.19;65.18;102124.19;4937235;29;20270;-81
2021/08/14 08:36:46;;;;;;;26.43;12.37;;;;;;;20.97;66.77;102132.50;4937147;29;20230;-81
2021/08/14 08:39:13;;;;;;;33.30;12.53;;;;;;;21.02;66.86;102124.38;4935766;29;20206;-81
2021/08/14 08:41:39;;;;;;;25.17;11.27;;;;;;;21.20;66.57;102121.22;4937939;29;20214;-82
2021/08/14 08:44:08;;;;;;;24.40;10.80;;;;;;;20.29;67.71;102126.72;4938794;29;20223;-83
2021/08/14 08:46:35;;;;;;;22.57;11.43;;;;;;;20.00;68.72;102123.44;4937883;29;20235;-81
2021/08/14 08:49:03;;;;;;;20.70;11.23;;;;;;;20.03;68.18;102120.19;4940310;29;20317;-80
2021/08/14 08:51:31;;;;;;;20.87;12.20;;;;;;;20.82;65.56;102116.88;4937700;29;20215;-80
2021/08/14 08:53:59;;;;;;;22.13;12.43;;;;;;;21.37;63.77;102111.03;4938075;29;20209;-80
2021/08/14 08:56:25;;;;;;;21.77;11.00;;;;;;;21.32;63.60;102110.16;4937796;29;20217;-81
2021/08/14 08:58:52;;;;;;;21.87;11.30;;;;;;;21.68;62.24;102109.25;4940120;29;20286;-80
2021/08/14 09:01:18;;;;;;;22.00;11.17;;;;;;;21.50;62.30;102111.63;4941614;29;20257;-81
2021/08/14 09:03:45;;;;;;;23.50;11.93;;;;;;;21.25;64.03;102104.97;4940410;29;20245;-81
2021/08/14 09:06:13;;;;;;;24.27;13.03;;;;;;;21.05;64.13;102104.81;4936646;29;20275;-81
2021/08/14 09:08:39;;;;;;;17.27;12.13;;;;;;;21.31;63.75;102100.38;4940045;29;20236;-81
2021/08/14 09:11:09;;;;;;;21.73;13.20;;;;;;;21.03;63.83;102115.94;4939781;29;20273;-80
2021/08/14 09:13:35;;;;;;;20.60;12.97;;;;;;;21.60;63.36;102120.66;4939207;29;20217;-80
2021/08/14 09:16:17;;;;;;;22.90;13.17;;;;;;;21.51;62.33;102118.69;4937758;29;20214;-82
2021/08/14 09:18:53;;;;;;;20.37;13.60;;;;;;;21.49;62.79;102129.03;4937927;29;20261;-81
2021/08/14 09:21:30;;;;;;;24.27;14.73;;;;;;;21.18;64.40;102123.38;4938410;29;20253;-80
2021/08/14 09:23:56;;;;;;;25.40;14.87;;;;;;;21.44;63.55;102116.22;4934704;29;20214;-80
2021/08/14 09:26:24;;;;;;;29.00;17.40;;;;;;;21.36;63.46;102114.84;4935725;29;20242;-80
2021/08/14 09:29:02;;;;;;;26.93;15.67;;;;;;;21.85;62.43;102116.38;4937866;29;20219;-80
2021/08/14 09:31:29;;;;;;;26.30;15.97;;;;;;;22.67;61.09;102111.91;4937733;29;20880;-81
2021/08/14 09:34:14;;;;;;;29.33;16.50;;;;;;;22.16;61.23;102112.69;4937007;29;20781;-79
2021/08/14 09:36:41;;;;;;;29.43;16.40;;;;;;;22.18;61.05;102124.13;4938788;29;20211;-80
2021/08/14 09:39:07;;;;;;;28.83;16.03;;;;;;;21.73;62.89;102122.88;4939354;28;20638;-81
2021/08/14 09:41:35;;;;;;;27.73;18.53;;;;;;;21.67;62.98;102128.56;4937483;29;20237;-79
2021/08/14 09:44:02;;;;;;;30.07;17.23;;;;;;;21.85;62.10;102127.25;4939235;29;20211;-80
2021/08/14 09:46:41;;;;;;;28.93;18.17;;;;;;;21.61;63.52;102122.28;4936433;29;20241;-80
2021/08/14 09:49:07;;;;;;;36.93;19.50;;;;;;;21.54;63.37;102121.69;4939899;29;20254;-83
2021/08/14 09:51:34;;;;;;;30.67;19.03;;;;;;;21.50;63.93;102114.34;4938044;29;20222;-82
2021/08/14 09:54:02;;;;;;;34.33;18.37;;;;;;;21.95;62.99;102113.69;4940026;29;20309;-79
2021/08/14 09:56:34;;;;;;;29.30;17.53;;;;;;;21.99;62.51;102115.63;4940342;29;20217;-81
2021/08/14 09:59:02;;;;;;;31.50;18.07;;;;;;;21.85;62.89;102116.38;4937440;29;20319;-80
2021/08/14 10:01:31;;;;;;;28.70;18.50;;;;;;;21.41;64.28;102114.03;4940934;29;20215;-81
2021/08/14 10:03:58;;;;;;;36.90;19.37;;;;;;;21.44;64.98;102114.31;4939014;29;20227;-82
2021/08/14 10:06:25;;;;;;;31.67;18.63;;;;;;;22.21;62.96;102115.41;4937942;29;20768;-80
2021/08/14 10:08:51;;;;;;;32.03;18.93;;;;;;;23.06;59.62;102112.16;4937772;29;20616;-81
2021/08/14 10:11:18;;;;;;;32.13;17.17;;;;;;;23.08;59.67;102113.50;4937638;29;20214;-80
2021/08/14 10:13:45;;;;;;;33.50;18.70;;;;;;;22.36;60.60;102111.91;4937410;29;20228;-80
2021/08/14 10:16:14;;;;;;;29.73;18.83;;;;;;;21.82;62.57;102106.03;4937554;29;20272;-80
2021/08/14 10:18:42;;;;;;;31.00;18.23;;;;;;;20.63;65.36;102104.78;4935097;29;20234;-80
2021/08/14 10:21:09;;;;;;;34.17;18.17;;;;;;;20.75;65.95;102100.00;4935103;29;20229;-79
2021/08/14 10:23:36;;;;;;;29.30;19.10;;;;;;;20.62;66.85;102095.81;4935824;29;20232;-80
2021/08/14 10:26:04;;;;;;;37.27;22.43;;;;;;;20.34;69.39;102113.22;4936527;29;20241;-80
2021/08/14 10:28:45;;;;;;;34.93;21.80;;;;;;;20.87;68.32;102106.06;4937625;29;20244;-81
2021/08/14 10:31:49;;;;;;;33.50;22.07;;;;;;;20.73;67.89;102107.59;4938655;29;20224;-81
2021/08/14 10:34:29;;;;;;;40.43;23.00;;;;;;;20.75;66.94;102094.56;4935962;29;20233;-80
2021/08/14 10:36:56;;;;;;;31.53;20.90;;;;;;;21.01;66.63;102103.72;4937641;29;20261;-79
2021/08/14 10:39:23;;;;;;;30.23;20.67;;;;;;;20.55;67.37;102111.50;4936567;29;21218;-80
2021/08/14 10:41:52;;;;;;;31.23;19.80;;;;;;;20.44;66.82;102110.59;4937715;29;20222;-81
2021/08/14 10:44:40;;;;;;;31.13;20.17;;;;;;;20.36;68.19;102119.19;4937559;29;20218;-80
2021/08/14 10:47:44;;;;;;;38.47;22.83;;;;;;;20.37;68.61;102111.88;4937241;29;20651;-80
2021/08/14 10:50:14;;;;;;;37.80;24.20;;;;;;;20.33;68.86;102110.72;4935205;29;20259;-79
2021/08/14 10:52:41;;;;;;;42.20;24.60;;;;;;;20.18;69.32;102111.41;4937144;28;20591;-80
2021/08/14 10:55:13;;;;;;;42.53;25.27;;;;;;;20.07;70.49;102117.78;4933352;29;20222;-79
2021/08/14 10:57:44;;;;;;;36.77;24.33;;;;;;;20.32;68.61;102096.34;4932940;29;20685;-79
2021/08/14 11:00:28;;;;;;;33.93;24.33;;;;;;;20.40;68.93;102114.88;4937102;29;20214;-80
2021/08/14 11:03:04;;;;;;;34.03;23.43;;;;;;;20.76;67.65;102099.72;4934189;29;20241;-80
2021/08/14 11:05:31;;;;;;;38.63;23.37;;;;;;;20.64;67.90;102101.00;4938029;29;20233;-80
2021/08/14 11:08:00;;;;;;;35.37;23.00;;;;;;;20.38;68.99;102102.66;4937897;29;20219;-80
2021/08/14 11:10:44;;;;;;;33.83;23.13;;;;;;;20.31;69.11;102097.41;4937978;29;20217;-79
2021/08/14 11:13:49;;;;;;;28.10;20.83;;;;;;;20.55;68.35;102100.66;4939335;29;20212;-80